Aérodrome :







RETROUVEZ-NOUS SUR...

 
LOGIN :

S'inscrire | Disclaimer

   EN    FR    IT 

 









Légende :    VFR   VFR Marginal   IFR   IFR Intensif   IFR Très Intensif
Visi : 
Plafond : 
>= 8 km
>= 3000ft
5 à 8 km
1000 à 3000 ft
1500m à 5 km
500 à 1000 ft
800 à 1500m
200 à 500 ft
< 800m
< 200 ft
Symboles :   Orages  Brouillard  Fortes neiges  Fortes précipitations  Vent > 20 kt






- Altitude de l'aérodrome : 160 ft
- Code IATA : YYR


CYYR - Goose Bay

DERNIER METAR :
  • 242100Z 05004KT 15SM -SHSN BKN057 OVC260 M14/M24 A3009 RMK SC6CI2 VIS LWR N SLP195

METARs EXPIRÉS :
  • 242055Z 06005KT 15SM -SHSN BKN057 OVC260 M15/M24 A3009 RMK SC6CI2 VIS LWR N SLP195
  • 242000Z 06007KT 15SM FEW058 OVC260 M15/M25 A3010 RMK SC2CI6 SLP200
  • 241900Z 07008KT 15SM FEW058 FEW200 OVC260 M15/M24 A3013 RMK SC2CC1CI6 SLP210

TAF AMD TAF CYYR
Valide du 24 à 20h jusqu'au 25 à 18h UTC


242008Z 2420/2518 06008KT P6SM FEW060 OVC260
BECMG 2420/2422 6SM -SN FEW008 OVC025
FM242200 06010KT 6SM -SN FEW008 OVC025
TEMPO 2422/2424 3SM -SN SCT008 OVC012
FM250000 06008KT 3SM -SN SCT008 OVC015
TEMPO 2500/2506 1SM -SN BKN008 OVC015
FM250600 VRB03KT 5SM -SN BKN012 OVC020
TEMPO 2506/2512 P6SM -SN SCT015 BKN025
BECMG 2510/2512 34010KT
FM251200 34010KT P6SM -SN BKN012 OVC025
FM251600 35010KT P6SM SCT012 BKN025 RMK NXT FCST BY 250000Z



MET'MAP, la Météo Aéronautique d'un coup d'oeil ! - Copyright ORBIFLY Décembre 2007 - Disclaimer

ORBIFLY MET'MAP TEAM :

Programmation & Développement : Alexandra Zaïnal
Sur une idée originale de : Baudouin d'Aumeries
Assistance à la programmation : Marc-Olivier Méhu
Soutien technique & logistique : Manuel Goepfert

Contact : metmap@orbifly.com




SOURCES & CREDITS :

   NOAA